Time,TemperatureF,DewpointF,PressureIn,WindDirection,WindDirectionDegrees,WindSpeedMPH,WindSpeedGustMPH,Humidity,HourlyPrecipIn,Conditions,Clouds,dailyrainin,SoftwareType,DateUTC
2013-09-07 00:01:00,64.1,59.8,29.82,ENE,74,2.0,11.0,86,0.00,,,0.00,Wunderground v.1.15,2013-09-07 07:01:00,
2013-09-07 00:11:00,63.7,59.4,29.82,ENE,68,2.0,11.0,86,0.00,,,0.00,Wunderground v.1.15,2013-09-07 07:11:00,
2013-09-07 00:21:00,64.1,59.8,29.82,NE,53,2.0,11.0,86,0.00,,,0.00,Wunderground v.1.15,2013-09-07 07:21:00,
2013-09-07 00:26:00,63.7,59.1,29.82,ENE,59,2.0,11.0,85,0.00,,,0.00,Wunderground v.1.15,2013-09-07 07:26:00,
2013-09-07 00:36:00,63.5,59.6,29.82,NE,46,3.0,3.0,87,0.00,,,0.00,Wunderground v.1.15,2013-09-07 07:36:00,
2013-09-07 00:41:00,64.0,60.4,29.83,NE,45,2.0,11.0,88,0.00,,,0.00,Wunderground v.1.15,2013-09-07 07:41:00,
2013-09-07 00:50:00,64.7,60.7,29.83,NNE,27,3.0,11.0,87,0.00,,,0.00,Wunderground v.1.15,2013-09-07 07:50:00,
2013-09-07 00:56:00,64.7,60.4,29.83,NNE,13,2.0,11.0,86,0.00,,,0.00,Wunderground v.1.15,2013-09-07 07:56:00,
2013-09-07 01:06:00,64.9,60.6,29.83,NE,49,2.0,11.0,86,0.00,,,0.00,Wunderground v.1.15,2013-09-07 08:06:00,
2013-09-07 01:11:00,64.9,60.6,29.82,ENE,60,2.0,11.0,86,0.00,,,0.00,Wunderground v.1.15,2013-09-07 08:11:00,
2013-09-07 01:20:00,63.8,58.9,29.82,East,94,2.0,11.0,84,0.00,,,0.00,Wunderground v.1.15,2013-09-07 08:20:00,
2013-09-07 01:26:00,63.1,58.8,29.82,East,96,2.0,11.0,86,0.00,,,0.00,Wunderground v.1.15,2013-09-07 08:26:00,
2013-09-07 01:41:00,62.5,58.9,29.82,ENE,61,3.0,11.0,88,0.00,,,0.00,Wunderground v.1.15,2013-09-07 08:41:00,
2013-09-07 01:51:00,62.3,58.7,29.82,ENE,60,3.0,11.0,88,0.00,,,0.00,Wunderground v.1.15,2013-09-07 08:51:00,
2013-09-07 02:00:00,62.1,58.5,29.82,NE,51,3.0,11.0,88,0.00,,,0.00,Wunderground v.1.15,2013-09-07 09:00:00,
2013-09-07 02:06:00,62.1,58.8,29.82,NE,40,3.0,11.0,89,0.00,,,0.00,Wunderground v.1.15,2013-09-07 09:06:00,
2013-09-07 02:15:00,63.2,59.9,29.82,NNE,15,2.0,2.0,89,0.00,,,0.00,Wunderground v.1.15,2013-09-07 09:15:00,
2013-09-07 02:21:00,63.4,59.5,29.82,NE,54,2.0,11.0,87,0.00,,,0.00,Wunderground v.1.15,2013-09-07 09:21:00,
2013-09-07 02:30:00,61.7,57.5,29.82,SE,129,1.0,11.0,86,0.00,,,0.00,Wunderground v.1.15,2013-09-07 09:30:00,
2013-09-07 02:36:00,61.5,57.9,29.82,East,79,1.0,11.0,88,0.00,,,0.00,Wunderground v.1.15,2013-09-07 09:36:00,
2013-09-07 02:45:00,61.6,58.3,29.82,NE,55,1.0,11.0,89,0.00,,,0.00,Wunderground v.1.15,2013-09-07 09:45:00,
2013-09-07 02:51:00,61.7,58.4,29.82,NE,55,2.0,11.0,89,0.00,,,0.00,Wunderground v.1.15,2013-09-07 09:51:00,
2013-09-07 03:01:00,61.5,57.9,29.82,ESE,108,1.0,11.0,88,0.00,,,0.00,Wunderground v.1.15,2013-09-07 10:01:00,
2013-09-07 03:10:00,61.0,57.4,29.82,ENE,69,1.0,11.0,88,0.00,,,0.00,Wunderground v.1.15,2013-09-07 10:10:00,
2013-09-07 03:20:00,60.7,57.1,29.82,ESE,103,1.0,2.0,88,0.00,,,0.00,Wunderground v.1.15,2013-09-07 10:20:00,
2013-09-07 03:30:00,60.0,56.7,29.82,ENE,75,3.0,11.0,89,0.00,,,0.00,Wunderground v.1.15,2013-09-07 10:30:00,
2013-09-07 03:35:00,60.2,57.3,29.82,East,86,2.0,11.0,90,0.00,,,0.00,Wunderground v.1.15,2013-09-07 10:35:00,
2013-09-07 03:45:00,60.4,57.5,29.82,East,86,2.0,11.0,90,0.00,,,0.00,Wunderground v.1.15,2013-09-07 10:45:00,
2013-09-07 03:50:00,60.3,57.4,29.82,East,86,1.0,11.0,90,0.00,,,0.00,Wunderground v.1.15,2013-09-07 10:50:00,
2013-09-07 04:00:00,60.3,57.4,29.82,East,86,0.0,11.0,90,0.00,,,0.00,Wunderground v.1.15,2013-09-07 11:00:00,
2013-09-07 04:10:00,59.8,56.6,29.82,East,86,0.0,11.0,89,0.00,,,0.00,Wunderground v.1.15,2013-09-07 11:10:00,
2013-09-07 04:20:00,59.7,56.8,29.82,East,82,1.0,11.0,90,0.00,,,0.00,Wunderground v.1.15,2013-09-07 11:20:00,
2013-09-07 04:30:00,59.9,57.0,29.82,East,88,1.0,11.0,90,0.00,,,0.00,Wunderground v.1.15,2013-09-07 11:30:00,
2013-09-07 04:40:00,58.9,55.7,29.82,East,88,1.0,11.0,89,0.00,,,0.00,Wunderground v.1.15,2013-09-07 11:40:00,
2013-09-07 04:45:00,58.8,55.9,29.82,East,97,2.0,2.0,90,0.00,,,0.00,Wunderground v.1.15,2013-09-07 11:45:00,
2013-09-07 04:55:00,58.5,55.6,29.82,East,97,0.0,11.0,90,0.00,,,0.00,Wunderground v.1.15,2013-09-07 11:55:00,
2013-09-07 05:00:00,58.6,56.0,29.83,East,98,0.0,11.0,91,0.00,,,0.00,Wunderground v.1.15,2013-09-07 12:00:00,
2013-09-07 05:10:00,58.9,56.0,29.83,East,97,0.0,11.0,90,0.00,,,0.00,Wunderground v.1.15,2013-09-07 12:10:00,
2013-09-07 05:15:00,58.7,55.8,29.83,East,98,0.0,11.0,90,0.00,,,0.00,Wunderground v.1.15,2013-09-07 12:15:00,
2013-09-07 05:25:00,58.0,54.8,29.83,East,98,0.0,11.0,89,0.00,,,0.00,Wunderground v.1.15,2013-09-07 12:25:00,
2013-09-07 05:30:00,58.0,55.1,29.83,East,97,0.0,11.0,90,0.00,,,0.00,Wunderground v.1.15,2013-09-07 12:30:00,
2013-09-07 05:40:00,58.0,55.4,29.84,East,98,0.0,11.0,91,0.00,,,0.00,Wunderground v.1.15,2013-09-07 12:40:00,
2013-09-07 05:45:00,58.0,55.1,29.84,East,97,0.0,11.0,90,0.00,,,0.00,Wunderground v.1.15,2013-09-07 12:45:00,
2013-09-07 05:55:00,57.4,54.5,29.84,ESE,113,0.0,11.0,90,0.00,,,0.00,Wunderground v.1.15,2013-09-07 12:55:00,
2013-09-07 06:00:00,57.6,55.0,29.84,ESE,113,0.0,11.0,91,0.00,,,0.00,Wunderground v.1.15,2013-09-07 13:00:00,
2013-09-07 06:10:00,57.6,54.7,29.84,SE,126,0.0,11.0,90,0.00,,,0.00,Wunderground v.1.15,2013-09-07 13:10:00,
2013-09-07 06:20:00,58.7,56.4,29.84,SE,126,0.0,11.0,92,0.00,,,0.00,Wunderground v.1.15,2013-09-07 13:20:00,
2013-09-07 06:30:00,58.2,55.0,29.84,SE,126,0.0,11.0,89,0.00,,,0.00,Wunderground v.1.15,2013-09-07 13:30:00,
2013-09-07 06:40:00,57.9,55.0,29.84,NE,41,2.0,11.0,90,0.00,,,0.00,Wunderground v.1.15,2013-09-07 13:40:00,
2013-09-07 06:50:00,59.6,56.0,29.84,ENE,63,1.0,11.0,88,0.00,,,0.00,Wunderground v.1.15,2013-09-07 13:50:00,
2013-09-07 06:55:00,59.5,55.6,29.84,ENE,67,1.0,11.0,87,0.00,,,0.00,Wunderground v.1.15,2013-09-07 13:55:00,
2013-09-07 07:05:00,61.4,57.5,29.84,NNE,33,1.0,11.0,87,0.00,,,0.00,Wunderground v.1.15,2013-09-07 14:05:00,
2013-09-07 07:10:00,62.5,57.6,29.85,East,97,2.0,11.0,84,0.00,,,0.00,Wunderground v.1.15,2013-09-07 14:10:00,
2013-09-07 07:20:00,61.8,56.2,29.85,NE,53,2.0,11.0,82,0.00,,,0.00,Wunderground v.1.15,2013-09-07 14:20:00,
2013-09-07 07:25:00,62.1,56.5,29.85,NE,51,3.0,11.0,82,0.00,,,0.00,Wunderground v.1.15,2013-09-07 14:25:00,
2013-09-07 07:36:00,63.2,56.9,29.85,East,79,3.0,11.0,80,0.00,,,0.00,Wunderground v.1.15,2013-09-07 14:36:00,
2013-09-07 07:46:00,64.6,57.2,29.85,NE,48,2.0,2.0,77,0.00,,,0.00,Wunderground v.1.15,2013-09-07 14:46:00,
2013-09-07 07:51:00,65.7,57.9,29.85,ENE,70,1.0,11.0,76,0.00,,,0.00,Wunderground v.1.15,2013-09-07 14:51:00,
2013-09-07 08:01:00,67.6,57.5,29.85,East,100,1.0,2.0,70,0.00,,,0.00,Wunderground v.1.15,2013-09-07 15:01:00,
2013-09-07 08:06:00,68.0,57.8,29.85,East,80,2.0,2.0,70,0.00,,,0.00,Wunderground v.1.15,2013-09-07 15:06:00,
2013-09-07 08:16:00,70.8,58.0,29.85,ENE,67,1.0,11.0,64,0.00,,,0.00,Wunderground v.1.15,2013-09-07 15:16:00,
2013-09-07 08:26:00,73.3,58.1,29.85,SW,222,1.0,11.0,59,0.00,,,0.00,Wunderground v.1.15,2013-09-07 15:26:00,
2013-09-07 08:31:00,74.2,58.9,29.85,SE,129,1.0,11.0,59,0.00,,,0.00,Wunderground v.1.15,2013-09-07 15:31:00,
2013-09-07 08:41:00,75.5,57.7,29.85,East,94,2.0,11.0,54,0.00,,,0.00,Wunderground v.1.15,2013-09-07 15:41:00,
2013-09-07 08:46:00,76.2,57.8,29.85,ESE,117,2.0,2.0,53,0.00,,,0.00,Wunderground v.1.15,2013-09-07 15:46:00,
2013-09-07 08:56:00,78.6,57.8,29.85,East,94,1.0,1.0,49,0.00,,,0.00,Wunderground v.1.15,2013-09-07 15:56:00,
2013-09-07 09:01:00,79.6,57.0,29.85,SE,125,1.0,4.0,46,0.00,,,0.00,Wunderground v.1.15,2013-09-07 16:01:00,
2013-09-07 09:11:00,79.9,56.7,29.85,SE,145,3.0,11.0,45,0.00,,,0.00,Wunderground v.1.15,2013-09-07 16:11:00,
2013-09-07 09:21:00,82.2,56.2,29.85,NE,49,2.0,11.0,41,0.00,,,0.00,Wunderground v.1.15,2013-09-07 16:21:00,
2013-09-07 09:31:00,83.5,55.2,29.85,SE,128,2.0,11.0,38,0.00,,,0.00,Wunderground v.1.15,2013-09-07 16:31:00,
2013-09-07 09:41:00,83.9,54.8,29.85,ESE,117,4.0,11.0,37,0.00,,,0.00,Wunderground v.1.15,2013-09-07 16:41:00,
2013-09-07 09:46:00,85.4,56.2,29.85,ESE,117,3.0,3.0,37,0.00,,,0.00,Wunderground v.1.15,2013-09-07 16:46:00,
2013-09-07 09:56:00,87.5,55.7,29.85,East,93,2.0,2.0,34,0.00,,,0.00,Wunderground v.1.15,2013-09-07 16:56:00,
2013-09-07 10:01:00,89.1,55.4,29.85,SSW,195,1.0,11.0,32,0.00,,,0.00,Wunderground v.1.15,2013-09-07 17:01:00,
2013-09-07 10:11:00,90.7,55.9,29.84,South,173,1.0,11.0,31,0.00,,,0.00,Wunderground v.1.15,2013-09-07 17:11:00,
2013-09-07 10:16:00,91.9,56.0,29.85,SW,226,1.0,11.0,30,0.00,,,0.00,Wunderground v.1.15,2013-09-07 17:16:00,
2013-09-07 10:26:00,89.9,55.2,29.84,WSW,243,4.0,4.0,31,0.00,,,0.00,Wunderground v.1.15,2013-09-07 17:26:00,
2013-09-07 10:31:00,89.6,57.5,29.84,SSW,209,4.0,11.0,34,0.00,,,0.00,Wunderground v.1.15,2013-09-07 17:31:00,
2013-09-07 10:41:00,89.8,57.7,29.84,SSW,195,5.0,11.0,34,0.00,,,0.00,Wunderground v.1.15,2013-09-07 17:41:00,
2013-09-07 10:51:00,88.6,59.7,29.83,SW,226,6.0,11.0,38,0.00,,,0.00,Wunderground v.1.15,2013-09-07 17:51:00,
2013-09-07 10:56:00,88.4,59.6,29.83,WSW,245,7.0,11.0,38,0.00,,,0.00,Wunderground v.1.15,2013-09-07 17:56:00,
2013-09-07 11:06:00,88.7,60.6,29.83,SSW,204,7.0,11.0,39,0.00,,,0.00,Wunderground v.1.15,2013-09-07 18:06:00,
2013-09-07 11:11:00,88.4,61.0,29.83,SSW,201,8.0,11.0,40,0.00,,,0.00,Wunderground v.1.15,2013-09-07 18:11:00,
2013-09-07 11:21:00,87.9,61.3,29.83,SSW,210,8.0,11.0,41,0.00,,,0.00,Wunderground v.1.15,2013-09-07 18:21:00,
2013-09-07 11:26:00,87.8,59.8,29.83,SW,219,8.0,11.0,39,0.00,,,0.00,Wunderground v.1.15,2013-09-07 18:26:00,
2013-09-07 11:36:00,88.6,58.2,29.83,SW,228,7.0,11.0,36,0.00,,,0.00,Wunderground v.1.15,2013-09-07 18:36:00,
2013-09-07 11:41:00,89.3,58.1,29.83,WSW,253,7.0,11.0,35,0.00,,,0.00,Wunderground v.1.15,2013-09-07 18:41:00,
2013-09-07 11:51:00,89.8,60.1,29.82,WSW,249,8.0,11.0,37,0.00,,,0.00,Wunderground v.1.15,2013-09-07 18:51:00,
2013-09-07 11:56:00,89.5,59.0,29.82,West,273,9.0,9.0,36,0.00,,,0.00,Wunderground v.1.15,2013-09-07 18:56:00,
2013-09-07 12:06:00,89.6,60.6,29.82,West,273,9.0,11.0,38,0.00,,,0.00,Wunderground v.1.15,2013-09-07 19:06:00,
2013-09-07 12:11:00,89.2,60.3,29.82,WSW,253,10.0,11.0,38,0.00,,,0.00,Wunderground v.1.15,2013-09-07 19:11:00,
2013-09-07 12:21:00,88.0,57.7,29.81,SW,235,11.0,11.0,36,0.00,,,0.00,Wunderground v.1.15,2013-09-07 19:21:00,
2013-09-07 12:31:00,87.4,56.4,29.81,WSW,250,10.0,11.0,35,0.00,,,0.00,Wunderground v.1.15,2013-09-07 19:31:00,
2013-09-07 12:41:00,88.2,56.3,29.81,West,259,10.0,14.0,34,0.00,,,0.00,Wunderground v.1.15,2013-09-07 19:41:00,
2013-09-07 12:51:00,89.1,56.2,29.81,West,266,11.0,11.0,33,0.00,,,0.00,Wunderground v.1.15,2013-09-07 19:51:00,
2013-09-07 13:01:00,89.1,54.5,29.81,West,267,12.0,12.0,31,0.00,,,0.00,Wunderground v.1.15,2013-09-07 20:01:00,
2013-09-07 13:11:00,88.7,55.1,29.80,WSW,253,12.0,12.0,32,0.00,,,0.00,Wunderground v.1.15,2013-09-07 20:11:00,
2013-09-07 13:21:00,88.9,55.2,29.80,WSW,255,11.0,11.0,32,0.00,,,0.00,Wunderground v.1.15,2013-09-07 20:21:00,
2013-09-07 13:30:00,88.9,55.2,29.80,WSW,246,12.0,17.0,32,0.00,,,0.00,Wunderground v.1.15,2013-09-07 20:30:00,
2013-09-07 13:36:00,88.9,55.2,29.80,West,259,12.0,16.0,32,0.00,,,0.00,Wunderground v.1.15,2013-09-07 20:36:00,
2013-09-07 13:45:00,89.9,54.3,29.80,SW,235,11.0,11.0,30,0.00,,,0.00,Wunderground v.1.15,2013-09-07 20:45:00,
2013-09-07 13:51:00,90.8,53.2,29.80,WSW,246,11.0,15.0,28,0.00,,,0.00,Wunderground v.1.15,2013-09-07 20:51:00,
2013-09-07 14:00:00,90.4,53.8,29.79,West,274,12.0,15.0,29,0.00,,,0.00,Wunderground v.1.15,2013-09-07 21:00:00,
2013-09-07 14:06:00,90.2,50.7,29.79,West,260,13.0,15.0,26,0.00,,,0.00,Wunderground v.1.15,2013-09-07 21:06:00,
2013-09-07 14:15:00,89.5,59.8,29.79,WSW,246,11.0,11.0,37,0.00,,,0.00,Wunderground v.1.15,2013-09-07 21:15:00,
2013-09-07 14:21:00,87.8,59.8,29.79,West,270,10.0,12.0,39,0.00,,,0.00,Wunderground v.1.15,2013-09-07 21:21:00,
2013-09-07 14:30:00,85.8,60.1,29.79,SW,231,11.0,11.0,42,0.00,,,0.00,Wunderground v.1.15,2013-09-07 21:30:00,
2013-09-07 14:36:00,85.2,60.8,29.78,WSW,240,10.0,10.0,44,0.00,,,0.00,Wunderground v.1.15,2013-09-07 21:36:00,
2013-09-07 14:45:00,83.3,61.6,29.78,West,270,10.0,10.0,48,0.00,,,0.00,Wunderground v.1.15,2013-09-07 21:45:00,
2013-09-07 14:51:00,82.6,60.9,29.78,WSW,248,10.0,18.0,48,0.00,,,0.00,Wunderground v.1.15,2013-09-07 21:51:00,
2013-09-07 15:00:00,81.0,61.2,29.78,SW,236,13.0,15.0,51,0.00,,,0.00,Wunderground v.1.15,2013-09-07 22:00:00,
2013-09-07 15:06:00,80.5,61.3,29.78,West,260,13.0,21.0,52,0.00,,,0.00,Wunderground v.1.15,2013-09-07 22:06:00,
2013-09-07 15:15:00,79.6,62.0,29.77,West,259,14.0,14.0,55,0.00,,,0.00,Wunderground v.1.15,2013-09-07 22:15:00,
2013-09-07 15:20:00,79.5,61.9,29.77,West,270,13.0,14.0,55,0.00,,,0.00,Wunderground v.1.15,2013-09-07 22:20:00,
2013-09-07 15:30:00,78.6,62.1,29.77,WSW,255,14.0,17.0,57,0.00,,,0.00,Wunderground v.1.15,2013-09-07 22:30:00,
2013-09-07 15:35:00,78.4,61.9,29.77,SW,228,14.0,14.0,57,0.00,,,0.00,Wunderground v.1.15,2013-09-07 22:35:00,
2013-09-07 15:46:00,78.8,61.8,29.77,West,272,12.0,12.0,56,0.00,,,0.00,Wunderground v.1.15,2013-09-07 22:46:00,
2013-09-07 15:55:00,78.6,62.1,29.77,West,260,10.0,14.0,57,0.00,,,0.00,Wunderground v.1.15,2013-09-07 22:55:00,
2013-09-07 16:00:00,77.2,61.8,29.77,West,266,11.0,14.0,59,0.00,,,0.00,Wunderground v.1.15,2013-09-07 23:00:00,
2013-09-07 16:10:00,76.9,62.0,29.77,WSW,255,11.0,13.0,60,0.00,,,0.00,Wunderground v.1.15,2013-09-07 23:10:00,
2013-09-07 16:20:00,76.7,62.2,29.77,West,260,10.0,11.0,61,0.00,,,0.00,Wunderground v.1.15,2013-09-07 23:20:00,
2013-09-07 16:30:00,76.0,62.0,29.77,WNW,288,10.0,12.0,62,0.00,,,0.00,Wunderground v.1.15,2013-09-07 23:30:00,
2013-09-07 16:40:00,75.5,62.0,29.77,WNW,292,10.0,11.0,63,0.00,,,0.00,Wunderground v.1.15,2013-09-07 23:40:00,
2013-09-07 16:50:00,74.9,62.3,29.77,WSW,240,10.0,11.0,65,0.00,,,0.00,Wunderground v.1.15,2013-09-07 23:50:00,
2013-09-07 17:00:00,75.1,62.5,29.77,West,262,9.0,11.0,65,0.00,,,0.00,Wunderground v.1.15,2013-09-08 00:00:00,
2013-09-07 17:10:00,75.2,62.2,29.77,West,277,8.0,11.0,64,0.00,,,0.00,Wunderground v.1.15,2013-09-08 00:10:00,
2013-09-07 17:15:00,75.5,62.5,29.77,West,269,8.0,8.0,64,0.00,,,0.00,Wunderground v.1.15,2013-09-08 00:15:00,
2013-09-07 17:25:00,75.3,62.3,29.77,SW,229,8.0,11.0,64,0.00,,,0.00,Wunderground v.1.15,2013-09-08 00:25:00,
2013-09-07 17:35:00,74.6,62.1,29.77,WSW,246,8.0,11.0,65,0.00,,,0.00,Wunderground v.1.15,2013-09-08 00:35:00,
2013-09-07 17:45:00,74.2,61.7,29.77,West,259,7.0,11.0,65,0.00,,,0.00,Wunderground v.1.15,2013-09-08 00:45:00,
2013-09-07 17:50:00,73.9,61.8,29.77,WSW,238,8.0,11.0,66,0.00,,,0.00,Wunderground v.1.15,2013-09-08 00:50:00,
2013-09-07 18:00:00,73.1,61.9,29.77,WSW,255,7.0,11.0,68,0.00,,,0.00,Wunderground v.1.15,2013-09-08 01:00:00,
2013-09-07 18:10:00,72.7,61.9,29.77,WNW,293,7.0,11.0,69,0.00,,,0.00,Wunderground v.1.15,2013-09-08 01:10:00,
2013-09-07 18:15:00,72.6,61.8,29.78,SW,229,7.0,7.0,69,0.00,,,0.00,Wunderground v.1.15,2013-09-08 01:15:00,
2013-09-07 18:25:00,71.4,61.1,29.78,WSW,242,7.0,7.0,70,0.00,,,0.00,Wunderground v.1.15,2013-09-08 01:25:00,
2013-09-07 18:30:00,70.7,60.8,29.78,West,273,8.0,8.0,71,0.00,,,0.00,Wunderground v.1.15,2013-09-08 01:30:00,
2013-09-07 18:40:00,69.6,60.9,29.78,West,269,8.0,11.0,74,0.00,,,0.00,Wunderground v.1.15,2013-09-08 01:40:00,
2013-09-07 18:45:00,69.0,61.1,29.78,WSW,253,8.0,11.0,76,0.00,,,0.00,Wunderground v.1.15,2013-09-08 01:45:00,
2013-09-07 18:55:00,68.5,61.0,29.79,WNW,302,6.0,6.0,77,0.00,,,0.00,Wunderground v.1.15,2013-09-08 01:55:00,
2013-09-07 19:00:00,68.1,61.0,29.79,WSW,246,5.0,11.0,78,0.00,,,0.00,Wunderground v.1.15,2013-09-08 02:00:00,
2013-09-07 19:10:00,67.2,60.5,29.79,West,277,6.0,11.0,79,0.00,,,0.00,Wunderground v.1.15,2013-09-08 02:10:00,
2013-09-07 19:20:00,66.7,60.7,29.80,WSW,250,6.0,11.0,81,0.00,,,0.00,Wunderground v.1.15,2013-09-08 02:20:00,
2013-09-07 19:31:00,66.2,60.5,29.80,WSW,257,6.0,11.0,82,0.00,,,0.00,Wunderground v.1.15,2013-09-08 02:31:00,
2013-09-07 19:41:00,65.7,60.4,29.81,WSW,256,5.0,11.0,83,0.00,,,0.00,Wunderground v.1.15,2013-09-08 02:41:00,
2013-09-07 19:46:00,65.4,60.4,29.81,WSW,243,5.0,11.0,84,0.00,,,0.00,Wunderground v.1.15,2013-09-08 02:46:00,
2013-09-07 19:56:00,65.0,60.4,29.81,WSW,250,5.0,11.0,85,0.00,,,0.00,Wunderground v.1.15,2013-09-08 02:56:00,
2013-09-07 20:01:00,64.9,60.3,29.81,WSW,253,5.0,11.0,85,0.00,,,0.00,Wunderground v.1.15,2013-09-08 03:01:00,
2013-09-07 20:11:00,64.6,60.3,29.81,West,264,4.0,11.0,86,0.00,,,0.00,Wunderground v.1.15,2013-09-08 03:11:00,
2013-09-07 20:21:00,64.5,60.5,29.82,SW,230,4.0,11.0,87,0.00,,,0.00,Wunderground v.1.15,2013-09-08 03:21:00,
2013-09-07 20:31:00,64.5,60.5,29.82,WSW,246,5.0,11.0,87,0.00,,,0.00,Wunderground v.1.15,2013-09-08 03:31:00,
2013-09-07 20:36:00,64.3,60.3,29.83,WSW,246,5.0,5.0,87,0.00,,,0.00,Wunderground v.1.15,2013-09-08 03:36:00,
2013-09-07 20:46:00,64.2,60.2,29.83,SW,235,4.0,11.0,87,0.00,,,0.00,Wunderground v.1.15,2013-09-08 03:46:00,
2013-09-07 20:51:00,64.2,60.2,29.83,WSW,252,4.0,11.0,87,0.00,,,0.00,Wunderground v.1.15,2013-09-08 03:51:00,
2013-09-07 21:01:00,64.0,60.4,29.84,SSW,204,3.0,11.0,88,0.00,,,0.00,Wunderground v.1.15,2013-09-08 04:01:00,
2013-09-07 21:06:00,64.1,60.5,29.84,SW,222,2.0,11.0,88,0.00,,,0.00,Wunderground v.1.15,2013-09-08 04:06:00,
2013-09-07 21:16:00,63.9,60.0,29.84,WSW,240,3.0,3.0,87,0.00,,,0.00,Wunderground v.1.15,2013-09-08 04:16:00,
2013-09-07 21:21:00,63.8,60.2,29.84,WSW,243,3.0,11.0,88,0.00,,,0.00,Wunderground v.1.15,2013-09-08 04:21:00,
2013-09-07 21:26:00,63.7,60.1,29.84,SE,142,2.0,2.0,88,0.00,,,0.00,Wunderground v.1.15,2013-09-08 04:26:00,
2013-09-07 21:31:00,63.3,59.4,29.84,ESE,122,2.0,11.0,87,0.00,,,0.00,Wunderground v.1.15,2013-09-08 04:31:00,
2013-09-07 21:41:00,62.8,59.2,29.84,SSW,207,1.0,11.0,88,0.00,,,0.00,Wunderground v.1.15,2013-09-08 04:41:00,
2013-09-07 21:51:00,62.6,59.3,29.84,SE,136,0.0,11.0,89,0.00,,,0.00,Wunderground v.1.15,2013-09-08 04:51:00,
2013-09-07 22:01:00,62.5,59.2,29.84,ESE,122,0.0,11.0,89,0.00,,,0.00,Wunderground v.1.15,2013-09-08 05:01:00,
2013-09-07 22:11:00,62.5,59.5,29.84,ESE,111,0.0,11.0,90,0.00,,,0.00,Wunderground v.1.15,2013-09-08 05:11:00,
2013-09-07 22:21:00,62.5,59.5,29.84,ESE,113,0.0,11.0,90,0.00,,,0.00,Wunderground v.1.15,2013-09-08 05:21:00,
2013-09-07 22:31:00,62.1,59.1,29.84,SE,125,0.0,11.0,90,0.00,,,0.00,Wunderground v.1.15,2013-09-08 05:31:00,
2013-09-07 22:41:00,62.2,59.2,29.84,SE,125,0.0,11.0,90,0.00,,,0.00,Wunderground v.1.15,2013-09-08 05:41:00,
2013-09-07 22:46:00,62.3,59.3,29.84,ESE,107,0.0,11.0,90,0.00,,,0.00,Wunderground v.1.15,2013-09-08 05:46:00,
2013-09-07 22:56:00,61.7,58.4,29.84,East,91,2.0,11.0,89,0.00,,,0.00,Wunderground v.1.15,2013-09-08 05:56:00,
2013-09-07 23:01:00,62.0,58.7,29.84,NE,45,3.0,11.0,89,0.00,,,0.00,Wunderground v.1.15,2013-09-08 06:01:00,
2013-09-07 23:11:00,62.4,59.1,29.84,ENE,60,3.0,11.0,89,0.00,,,0.00,Wunderground v.1.15,2013-09-08 06:11:00,
2013-09-07 23:16:00,62.9,59.6,29.84,NE,43,3.0,11.0,89,0.00,,,0.00,Wunderground v.1.15,2013-09-08 06:16:00,
2013-09-07 23:26:00,63.2,59.6,29.84,North,8,1.0,11.0,88,0.00,,,0.00,Wunderground v.1.15,2013-09-08 06:26:00,
2013-09-07 23:31:00,63.3,59.7,29.83,North,360,1.0,11.0,88,0.00,,,0.00,Wunderground v.1.15,2013-09-08 06:31:00,
2013-09-07 23:41:00,62.7,58.8,29.84,ESE,113,2.0,11.0,87,0.00,,,0.00,Wunderground v.1.15,2013-09-08 06:41:00,
2013-09-07 23:46:00,62.2,58.6,29.84,ESE,115,2.0,2.0,88,0.00,,,0.00,Wunderground v.1.15,2013-09-08 06:46:00,
2013-09-07 23:56:00,61.8,58.5,29.84,ENE,78,1.0,11.0,89,0.00,,,0.00,Wunderground v.1.15,2013-09-08 06:56:00,